Time;durP1;ratioP1;P1;durP2;ratioP2;P2;SDS_P1;SDS_P2;PMS_P1;PMS_P2;Temp;Humidity;BMP_temperature;BMP_pressure;BME280_temperature;BME280_humidity;BME280_pressure;Samples;Min_cycle;Max_cycle;Signal;HPM_P1;HPM_P2
2023/03/07 00:01:32;;;;;;;;;17.50;14.25;;;;;7.96;55.81;99836.91;5055838;28;46260;-79
2023/03/07 00:03:58;;;;;;;;;16.75;15.50;;;;;7.97;55.79;99840.34;5056104;28;45673;-78
2023/03/07 00:06:23;;;;;;;;;19.00;14.75;;;;;7.93;55.82;99847.59;5055422;28;45638;-79
2023/03/07 00:08:51;;;;;;;;;24.25;20.00;;;;;7.91;55.91;99846.00;5055793;28;46601;-78
2023/03/07 00:14:38;;;;;;;;;21.75;17.75;;;;;7.91;56.08;99841.63;5055138;28;45634;-78
2023/03/07 00:17:03;;;;;;;;;16.75;13.00;;;;;7.89;56.10;99827.84;5055061;28;45757;-78
2023/03/07 00:19:28;;;;;;;;;19.25;17.75;;;;;7.83;56.00;99822.25;5055007;28;46439;-77
2023/03/07 00:21:54;;;;;;;;;18.50;17.00;;;;;7.84;55.96;99816.94;5055125;28;45702;-78
2023/03/07 00:24:19;;;;;;;;;19.00;14.00;;;;;7.93;55.86;99838.91;5055327;28;45642;-78
2023/03/07 00:30:08;;;;;;;;;12.25;12.25;;;;;7.86;56.06;99833.31;5054890;28;45583;-79
2023/03/07 00:32:33;;;;;;;;;17.00;14.50;;;;;7.84;56.15;99839.56;5055041;28;46268;-78
2023/03/07 00:35:00;;;;;;;;;19.50;16.25;;;;;7.73;56.43;99824.69;5055038;28;45648;-78
2023/03/07 00:37:25;;;;;;;;;21.00;15.00;;;;;7.79;56.08;99833.84;5054832;28;45532;-79
2023/03/07 00:39:51;;;;;;;;;17.50;14.00;;;;;7.78;56.10;99833.00;5054832;28;46572;-78
2023/03/07 00:42:16;;;;;;;;;16.00;13.00;;;;;7.78;56.34;99827.81;5060029;28;45698;-78
2023/03/07 00:44:41;;;;;;;;;20.75;14.50;;;;;7.75;56.05;99820.22;5057867;28;45607;-77
2023/03/07 00:47:07;;;;;;;;;19.25;14.75;;;;;7.80;56.10;99820.72;5057998;28;45630;-77
2023/03/07 00:49:32;;;;;;;;;20.75;16.00;;;;;7.77;56.22;99815.72;5058062;28;46677;-78
2023/03/07 00:51:59;;;;;;;;;23.00;18.00;;;;;7.81;55.95;99814.56;5055303;28;46975;-77
2023/03/07 00:54:25;;;;;;;;;14.25;9.50;;;;;7.82;56.19;99813.63;5054776;28;45534;-78
2023/03/07 01:00:12;;;;;;;;;21.00;16.75;;;;;7.80;56.15;99799.03;5054009;28;45740;-79
2023/03/07 01:02:37;;;;;;;;;15.75;13.75;;;;;7.83;56.00;99793.56;5054093;28;45960;-78
2023/03/07 01:05:03;;;;;;;;;15.50;14.75;;;;;7.84;56.11;99797.84;5054271;28;45571;-77
2023/03/07 01:07:28;;;;;;;;;18.50;14.50;;;;;7.81;56.06;99793.69;5054384;28;45497;-78
2023/03/07 01:09:54;;;;;;;;;19.00;13.50;;;;;7.74;56.02;99776.84;5054319;28;45511;-79
2023/03/07 01:15:41;;;;;;;;;13.75;12.25;;;;;7.83;56.13;99776.16;5053779;28;46103;-77
2023/03/07 01:18:08;;;;;;;;;24.25;17.25;;;;;7.83;55.89;99778.75;5053983;28;45712;-76
2023/03/07 01:20:35;;;;;;;;;15.00;14.00;;;;;7.85;55.77;99770.84;5054183;28;46538;-77
2023/03/07 01:23:02;;;;;;;;;16.25;14.00;;;;;7.83;55.84;99768.34;5052726;28;46186;-77
2023/03/07 01:25:27;;;;;;;;;16.00;13.00;;;;;7.85;55.79;99761.25;5053994;28;45851;-78
2023/03/07 01:27:56;;;;;;;;;17.00;13.50;;;;;7.86;55.71;99769.91;5053647;28;45629;-76
2023/03/07 01:30:23;;;;;;;;;16.50;11.25;;;;;7.85;55.79;99768.22;5053909;28;46031;-78
2023/03/07 01:32:56;;;;;;;;;13.25;13.00;;;;;7.84;55.76;99761.34;5053868;28;46034;-78
2023/03/07 01:35:21;;;;;;;;;21.25;15.25;;;;;7.82;55.97;99758.88;5053902;28;45538;-79
2023/03/07 01:37:48;;;;;;;;;19.25;15.00;;;;;7.83;55.76;99749.25;5053520;28;45813;-77
2023/03/07 01:40:14;;;;;;;;;20.75;16.00;;;;;7.81;55.84;99743.34;5053482;28;46591;-78
2023/03/07 01:46:16;;;;;;;;;17.50;14.25;;;;;7.81;56.01;99730.28;5053313;28;45575;-78
2023/03/07 01:48:45;;;;;;;;;17.00;14.75;;;;;7.80;55.75;99734.66;5054038;28;45691;-78
2023/03/07 01:51:11;;;;;;;;;16.75;15.75;;;;;7.77;55.66;99727.09;5053304;28;45662;-77
2023/03/07 01:53:37;;;;;;;;;16.75;13.25;;;;;7.76;55.64;99721.97;5053641;28;45706;-77
2023/03/07 01:56:05;;;;;;;;;16.50;13.75;;;;;7.83;55.78;99733.59;5052677;28;45645;-78
2023/03/07 01:58:30;;;;;;;;;18.75;14.25;;;;;7.78;55.80;99720.06;5053382;28;45550;-78
2023/03/07 02:00:55;;;;;;;;;19.00;15.25;;;;;7.82;55.63;99722.38;5052438;28;46425;-78
2023/03/07 02:03:29;;;;;;;;;15.50;13.50;;;;;7.82;55.89;99716.31;5035377;28;46432;-77
2023/03/07 02:06:00;;;;;;;;;11.50;9.00;;;;;7.76;55.91;99701.97;5053217;28;45692;-79
2023/03/07 02:08:29;;;;;;;;;17.50;14.00;;;;;7.76;55.84;99701.97;5053766;28;45480;-78
2023/03/07 02:10:54;;;;;;;;;17.00;16.00;;;;;7.79;55.93;99696.50;5053854;28;45474;-78
2023/03/07 02:16:43;;;;;;;;;19.75;15.25;;;;;7.81;55.67;99694.63;5052109;28;45950;-78
2023/03/07 02:19:27;;;;;;;;;17.25;15.75;;;;;7.81;55.84;99696.41;5053110;28;45639;-78
2023/03/07 02:21:58;;;;;;;;;17.25;15.75;;;;;7.80;55.82;99686.91;5053161;28;46610;-78
2023/03/07 02:24:31;;;;;;;;;19.50;16.00;;;;;7.64;55.74;99665.53;5052832;28;46355;-77
2023/03/07 02:26:57;;;;;;;;;19.75;12.00;;;;;7.80;55.64;99673.88;5052700;28;45600;-77
2023/03/07 02:29:23;;;;;;;;;17.75;14.00;;;;;7.80;55.75;99682.53;5053178;28;45709;-78
2023/03/07 02:31:49;;;;;;;;;17.50;15.25;;;;;7.74;55.96;99682.16;5052924;28;45649;-78
2023/03/07 02:34:29;;;;;;;;;20.25;17.50;;;;;7.74;55.86;99675.16;5052829;28;46079;-78
2023/03/07 02:37:20;;;;;;;;;18.25;15.75;;;;;7.74;55.84;99672.56;5052771;28;45573;-77
2023/03/07 02:39:46;;;;;;;;;17.50;14.75;;;;;7.78;56.11;99675.75;5053589;28;45441;-79
2023/03/07 02:42:17;;;;;;;;;17.75;14.00;;;;;7.75;55.83;99662.97;5054628;28;45586;-79
2023/03/07 02:44:46;;;;;;;;;14.75;13.00;;;;;7.79;56.02;99670.44;5054588;28;46214;-78
2023/03/07 02:47:12;;;;;;;;;20.75;16.50;;;;;7.77;55.75;99648.03;5053559;28;45916;-78
2023/03/07 02:49:37;;;;;;;;;14.75;13.50;;;;;7.77;55.46;99648.88;5053477;28;45557;-79
2023/03/07 02:52:03;;;;;;;;;16.75;13.00;;;;;7.72;55.98;99647.56;5055415;28;45650;-77
2023/03/07 02:54:28;;;;;;;;;18.00;12.00;;;;;7.78;55.83;99665.31;5056237;28;46382;-77
2023/03/07 02:56:54;;;;;;;;;16.75;13.75;;;;;7.77;55.74;99650.66;5056158;28;45465;-78
2023/03/07 02:59:19;;;;;;;;;14.50;14.50;;;;;7.75;55.96;99655.13;5056396;28;45499;-78
2023/03/07 03:01:45;;;;;;;;;16.75;14.25;;;;;7.76;55.82;99654.19;5055908;28;45634;-76
2023/03/07 03:04:10;;;;;;;;;16.00;12.50;;;;;7.76;55.88;99662.03;5056114;28;46141;-78
2023/03/07 03:06:35;;;;;;;;;17.50;15.75;;;;;7.70;55.96;99649.44;5056400;28;45653;-79
2023/03/07 03:09:01;;;;;;;;;13.50;12.00;;;;;7.71;55.93;99645.88;5056545;28;45738;-78
2023/03/07 03:11:26;;;;;;;;;17.00;12.25;;;;;7.62;56.01;99620.50;5056741;28;45700;-78
2023/03/07 03:17:14;;;;;;;;;17.50;14.25;;;;;7.68;55.91;99630.47;5056692;28;45595;-79
2023/03/07 03:19:40;;;;;;;;;17.75;15.00;;;;;7.65;55.95;99631.53;5062317;28;45687;-78
2023/03/07 03:22:05;;;;;;;;;17.00;12.50;;;;;7.62;56.04;99613.50;5059775;28;45705;-79
2023/03/07 03:24:30;;;;;;;;;15.25;13.75;;;;;7.66;56.18;99630.59;5056074;28;46107;-78
2023/03/07 03:26:56;;;;;;;;;13.50;11.75;;;;;7.68;56.17;99627.84;5055738;28;45705;-78
2023/03/07 03:32:43;;;;;;;;;17.75;13.00;;;;;7.61;56.20;99606.66;5055637;28;45667;-77
2023/03/07 03:35:10;;;;;;;;;18.00;15.25;;;;;7.57;56.21;99608.63;5055557;28;45861;-78
2023/03/07 03:37:35;;;;;;;;;17.50;13.00;;;;;7.56;56.23;99603.53;5055326;28;45595;-77
2023/03/07 03:40:01;;;;;;;;;17.00;15.50;;;;;7.60;56.30;99610.19;5056326;28;45707;-78
2023/03/07 03:42:26;;;;;;;;;16.00;14.00;;;;;7.60;56.19;99607.59;5056345;28;46383;-78
2023/03/07 03:44:51;;;;;;;;;20.00;16.00;;;;;7.60;56.39;99612.81;5056572;28;46324;-79
2023/03/07 03:47:17;;;;;;;;;14.25;12.00;;;;;7.56;56.28;99603.53;5056360;28;45566;-77
2023/03/07 03:49:42;;;;;;;;;15.25;11.50;;;;;7.50;56.34;99591.78;5056093;28;45740;-78
2023/03/07 03:52:08;;;;;;;;;17.50;13.25;;;;;7.58;56.33;99609.47;5056462;28;46316;-79
2023/03/07 03:54:33;;;;;;;;;16.50;12.75;;;;;7.45;56.26;99583.50;5055950;28;45908;-77
2023/03/07 03:56:59;;;;;;;;;18.25;15.25;;;;;7.56;56.44;99593.09;5055342;28;45838;-77
2023/03/07 04:02:46;;;;;;;;;22.50;17.25;;;;;7.55;56.46;99586.25;5054019;28;46034;-78
2023/03/07 04:05:11;;;;;;;;;19.75;13.50;;;;;7.40;56.46;99558.72;5055511;28;46220;-77
2023/03/07 04:07:37;;;;;;;;;15.50;12.75;;;;;7.45;56.39;99564.44;5055575;28;45693;-77
2023/03/07 04:10:03;;;;;;;;;14.00;12.75;;;;;7.53;56.54;99572.50;5055775;28;45591;-78
2023/03/07 04:12:29;;;;;;;;;16.00;14.00;;;;;7.40;56.59;99562.16;5055620;28;45745;-78
2023/03/07 04:18:18;;;;;;;;;17.25;13.50;;;;;7.47;56.38;99571.19;5054269;28;45862;-78
2023/03/07 04:20:44;;;;;;;;;17.50;13.00;;;;;7.54;56.48;99582.81;5054493;28;45801;-78
2023/03/07 04:23:10;;;;;;;;;19.00;13.50;;;;;7.54;56.57;99588.03;5055019;28;45622;-76
2023/03/07 04:25:35;;;;;;;;;15.75;13.25;;;;;7.47;56.50;99573.78;5055113;28;46194;-77
2023/03/07 04:28:00;;;;;;;;;16.00;13.50;;;;;7.52;56.69;99583.88;5054616;28;45493;-78
2023/03/07 04:30:26;;;;;;;;;18.50;17.00;;;;;7.51;56.61;99587.41;5054405;28;45790;-77
2023/03/07 04:32:51;;;;;;;;;17.75;13.75;;;;;7.50;56.55;99578.75;5054960;28;45589;-78
2023/03/07 04:35:17;;;;;;;;;17.25;14.25;;;;;7.47;56.53;99580.78;5054595;28;46231;-78
2023/03/07 04:37:42;;;;;;;;;13.75;11.50;;;;;7.49;56.77;99584.09;5054429;28;45707;-77
2023/03/07 04:40:08;;;;;;;;;13.25;12.00;;;;;7.49;56.71;99579.72;5055154;28;45623;-78
2023/03/07 04:42:34;;;;;;;;;21.00;15.25;;;;;7.48;56.62;99588.47;5054441;28;47125;-77
2023/03/07 04:48:21;;;;;;;;;17.75;15.25;;;;;7.38;56.64;99563.22;5054649;28;45902;-78
2023/03/07 04:50:51;;;;;;;;;20.50;16.75;;;;;7.47;56.70;99572.97;5054659;28;45718;-78
2023/03/07 04:53:17;;;;;;;;;13.75;13.25;;;;;7.42;56.85;99557.66;5054272;28;45940;-79
2023/03/07 04:55:43;;;;;;;;;16.25;15.00;;;;;7.48;56.89;99561.59;5054216;28;46365;-77
2023/03/07 04:58:11;;;;;;;;;16.25;15.50;;;;;7.25;56.96;99524.22;5054384;28;45825;-78
2023/03/07 05:03:58;;;;;;;;;16.00;12.00;;;;;7.37;57.01;99549.38;5054323;28;45777;-78
2023/03/07 05:06:24;;;;;;;;;15.25;13.00;;;;;7.41;56.90;99550.78;5054073;28;46193;-78
2023/03/07 05:08:49;;;;;;;;;14.00;13.25;;;;;7.39;56.79;99550.09;5054385;28;45791;-78
2023/03/07 05:11:14;;;;;;;;;17.00;14.50;;;;;7.45;57.01;99557.44;5054309;28;45743;-78
2023/03/07 05:13:40;;;;;;;;;12.00;10.75;;;;;7.46;56.74;99553.88;5053463;28;46664;-78
2023/03/07 05:16:05;;;;;;;;;18.75;14.50;;;;;7.40;57.27;99548.28;5053814;28;46055;-78
2023/03/07 05:18:31;;;;;;;;;16.25;13.00;;;;;7.34;56.89;99544.38;5053725;28;45630;-79
2023/03/07 05:20:56;;;;;;;;;19.00;12.50;;;;;7.43;56.91;99558.50;5054101;28;45663;-77
2023/03/07 05:23:21;;;;;;;;;14.00;13.50;;;;;7.41;56.78;99555.16;5054053;28;46391;-77
2023/03/07 05:25:47;;;;;;;;;16.25;14.25;;;;;7.44;56.96;99558.41;5053616;28;45508;-77
2023/03/07 05:28:13;;;;;;;;;14.75;13.75;;;;;7.44;57.13;99563.63;5054016;28;45638;-78
2023/03/07 05:34:00;;;;;;;;;12.75;12.00;;;;;7.45;56.98;99557.44;5053560;28;45896;-78
2023/03/07 05:36:26;;;;;;;;;16.75;14.00;;;;;7.42;57.06;99541.22;5054140;28;45678;-78
2023/03/07 05:38:53;;;;;;;;;10.75;8.75;;;;;7.43;57.06;99546.31;5055883;28;45629;-77
2023/03/07 05:41:18;;;;;;;;;13.75;13.75;;;;;7.45;56.99;99541.00;5055297;28;45490;-78
2023/03/07 05:43:44;;;;;;;;;13.75;12.50;;;;;7.45;56.96;99533.97;5053555;28;46635;-78
2023/03/07 05:49:31;;;;;;;;;6.00;5.00;;;;;7.45;57.25;99530.56;5054398;28;45572;-78
2023/03/07 05:51:56;;;;;;;;;17.00;13.25;;;;;7.35;57.26;99516.53;5055847;28;45520;-78
2023/03/07 05:54:22;;;;;;;;;13.00;13.00;;;;;7.39;57.18;99526.66;5058668;28;46454;-79
2023/03/07 05:56:47;;;;;;;;;17.00;15.25;;;;;7.45;57.03;99526.16;5058374;28;45756;-78
2023/03/07 05:59:14;;;;;;;;;17.25;13.25;;;;;7.38;57.04;99509.34;5055171;28;45556;-78
2023/03/07 06:01:40;;;;;;;;;17.50;14.50;;;;;7.44;57.39;99527.13;5055348;28;45820;-77
2023/03/07 06:04:06;;;;;;;;;14.50;12.00;;;;;7.41;57.45;99516.91;5055348;28;45620;-78
2023/03/07 06:06:31;;;;;;;;;12.00;10.00;;;;;7.33;57.48;99514.09;5054333;28;45669;-77
2023/03/07 06:08:56;;;;;;;;;17.25;13.25;;;;;7.20;57.32;99483.84;5054806;28;45570;-77
2023/03/07 06:11:22;;;;;;;;;16.00;13.00;;;;;7.26;57.37;99502.44;5053823;28;45666;-77
2023/03/07 06:13:47;;;;;;;;;13.00;10.00;;;;;7.30;57.21;99511.69;5053835;28;46565;-79
2023/03/07 06:19:34;;;;;;;;;13.00;10.00;;;;;7.18;57.63;99510.00;5067166;27;45548;-78
2023/03/07 06:22:00;;;;;;;;;15.75;12.50;;;;;7.18;57.81;99517.81;5074833;28;45780;-76
2023/03/07 06:24:25;;;;;;;;;14.00;12.50;;;;;6.95;57.63;99488.28;5074892;28;46583;-79
2023/03/07 06:26:50;;;;;;;;;12.25;11.00;;;;;7.12;57.83;99519.13;5072590;28;46289;-78
2023/03/07 06:29:16;;;;;;;;;21.75;14.25;;;;;7.05;57.76;99510.09;5073321;28;45588;-77
2023/03/07 06:35:03;;;;;;;;;14.50;12.00;;;;;7.02;57.99;99514.69;5073107;28;45943;-75
2023/03/07 06:37:29;;;;;;;;;18.00;14.50;;;;;6.94;58.55;99501.41;5053863;28;46180;-77
2023/03/07 06:39:54;;;;;;;;;16.25;14.25;;;;;6.92;58.18;99493.72;5073090;28;45524;-76
2023/03/07 06:42:20;;;;;;;;;12.50;12.50;;;;;7.03;58.42;99505.94;5073743;28;45655;-75
2023/03/07 06:44:45;;;;;;;;;20.00;14.00;;;;;6.99;58.13;99497.53;5074665;28;45636;-75
2023/03/07 06:50:31;;;;;;;;;13.50;12.50;;;;;7.08;58.26;99507.25;5073598;28;45641;-75
2023/03/07 06:52:57;;;;;;;;;13.75;12.75;;;;;7.02;58.31;99497.28;5074222;28;45696;-74
2023/03/07 06:55:22;;;;;;;;;13.75;11.75;;;;;7.00;58.13;99491.38;5072738;28;45492;-76
2023/03/07 06:57:47;;;;;;;;;13.75;12.00;;;;;7.08;58.61;99504.66;5073119;28;46219;-77
2023/03/07 07:00:13;;;;;;;;;12.75;10.25;;;;;7.08;58.46;99498.59;5072693;28;45680;-75
2023/03/07 07:02:39;;;;;;;;;13.00;10.00;;;;;7.06;58.10;99497.91;5072754;28;45455;-75
2023/03/07 07:05:04;;;;;;;;;12.50;9.75;;;;;7.10;58.42;99507.97;5072889;28;45556;-76
2023/03/07 07:07:30;;;;;;;;;11.50;10.00;;;;;7.10;58.37;99507.16;5071000;28;46923;-74
2023/03/07 07:09:55;;;;;;;;;16.75;11.50;;;;;7.13;58.04;99504.31;5073245;28;45502;-77
2023/03/07 07:12:21;;;;;;;;;14.25;10.50;;;;;7.14;58.04;99511.19;5073686;28;45686;-75
2023/03/07 07:14:46;;;;;;;;;13.75;12.75;;;;;7.14;58.33;99498.16;5072964;28;46503;-75
2023/03/07 07:20:33;;;;;;;;;13.00;10.25;;;;;7.13;58.57;99512.94;5070385;27;45666;-75
2023/03/07 07:22:58;;;;;;;;;13.00;12.00;;;;;7.21;58.28;99521.97;5072589;28;45451;-75
2023/03/07 07:25:24;;;;;;;;;13.50;11.00;;;;;7.20;58.01;99513.31;5072443;28;45710;-74
2023/03/07 07:27:49;;;;;;;;;12.75;11.25;;;;;7.21;58.34;99516.75;5072662;28;45743;-75
2023/03/07 07:30:15;;;;;;;;;13.50;12.50;;;;;7.22;58.08;99514.06;5072903;28;45558;-74
2023/03/07 07:36:02;;;;;;;;;8.75;8.50;;;;;7.24;58.21;99517.34;5072004;28;45945;-77
2023/03/07 07:38:28;;;;;;;;;13.00;10.00;;;;;7.26;57.94;99523.28;5073739;28;46129;-73
2023/03/07 07:40:55;;;;;;;;;16.25;10.00;;;;;7.28;58.23;99517.97;5075135;28;45691;-75
2023/03/07 07:43:20;;;;;;;;;13.50;10.00;;;;;7.25;57.94;99516.41;5075636;28;45596;-75
2023/03/07 07:45:45;;;;;;;;;12.75;11.00;;;;;7.24;57.89;99508.72;5075180;28;46232;-75
2023/03/07 07:48:11;;;;;;;;;8.25;6.50;;;;;7.22;58.10;99503.63;5075687;28;45745;-75
2023/03/07 07:50:36;;;;;;;;;12.75;10.50;;;;;7.24;58.02;99508.72;5075921;28;45725;-75
2023/03/07 07:53:02;;;;;;;;;9.00;8.75;;;;;7.23;58.25;99520.09;5076285;28;45693;-75
2023/03/07 07:55:27;;;;;;;;;13.75;11.25;;;;;7.20;58.03;99499.47;5075385;28;46857;-74
2023/03/07 07:57:53;;;;;;;;;13.00;10.75;;;;;7.27;57.94;99514.53;5077237;28;46977;-75
2023/03/07 08:00:20;;;;;;;;;18.75;13.00;;;;;7.24;58.07;99513.91;5077269;28;45659;-75
2023/03/07 08:06:07;;;;;;;;;13.25;11.00;;;;;7.31;58.00;99523.78;5076221;28;45750;-76
2023/03/07 08:08:32;;;;;;;;;14.00;11.75;;;;;7.27;57.69;99517.16;5075371;28;46028;-74
2023/03/07 08:10:58;;;;;;;;;14.25;12.00;;;;;7.42;57.83;99522.97;5075437;28;45666;-76
2023/03/07 08:13:23;;;;;;;;;9.75;8.75;;;;;7.35;57.80;99498.31;5073530;28;45714;-74
2023/03/07 08:15:48;;;;;;;;;11.00;9.25;;;;;7.45;57.73;99528.75;5074357;28;47171;-75
2023/03/07 08:21:35;;;;;;;;;13.25;12.00;;;;;7.42;57.91;99536.81;5073097;27;45757;-75
2023/03/07 08:24:01;;;;;;;;;13.50;13.00;;;;;7.30;57.77;99521.28;5057003;28;45799;-75
2023/03/07 08:26:26;;;;;;;;;10.00;8.50;;;;;7.42;57.88;99551.63;5074993;28;46367;-74
2023/03/07 08:28:52;;;;;;;;;13.00;9.75;;;;;7.41;58.04;99552.56;5076945;28;45923;-76
2023/03/07 08:31:22;;;;;;;;;16.75;10.75;;;;;7.29;57.78;99535.28;5076447;28;45542;-76
2023/03/07 08:33:54;;;;;;;;;10.25;8.50;;;;;7.39;57.95;99557.91;5075759;28;45882;-76
2023/03/07 08:36:19;;;;;;;;;13.50;11.75;;;;;7.29;57.92;99543.09;5075740;28;45898;-75
2023/03/07 08:38:50;;;;;;;;;13.00;11.75;;;;;7.35;58.08;99555.63;5076418;28;47169;-76
2023/03/07 08:41:16;;;;;;;;;12.75;10.50;;;;;7.33;58.23;99545.34;5058355;28;45529;-77
2023/03/07 08:43:41;;;;;;;;;13.00;9.25;;;;;7.36;58.04;99552.09;5074099;28;45616;-76
2023/03/07 08:46:08;;;;;;;;;10.00;10.00;;;;;7.32;57.79;99535.03;5074539;28;46364;-77
2023/03/07 08:51:54;;;;;;;;;12.25;9.25;;;;;7.42;58.04;99541.22;5074735;28;45913;-77
2023/03/07 08:54:21;;;;;;;;;12.50;9.50;;;;;7.35;57.73;99521.75;5074251;28;46025;-75
2023/03/07 08:56:46;;;;;;;;;9.75;9.75;;;;;7.47;57.80;99534.69;5054673;28;48270;-77
2023/03/07 08:59:12;;;;;;;;;8.50;8.00;;;;;7.41;57.51;99516.91;5074543;28;45798;-78
2023/03/07 09:01:37;;;;;;;;;13.25;10.25;;;;;7.51;57.90;99530.06;5074616;28;45718;-76
2023/03/07 09:04:03;;;;;;;;;10.00;10.00;;;;;7.49;57.62;99522.41;5073981;28;45645;-74
2023/03/07 09:06:29;;;;;;;;;13.25;11.25;;;;;7.56;57.55;99520.97;5074863;28;46961;-74
2023/03/07 09:08:55;;;;;;;;;14.00;12.50;;;;;7.62;57.76;99519.66;5074788;28;47251;-76
2023/03/07 09:11:21;;;;;;;;;13.50;10.00;;;;;7.65;57.59;99527.28;5076812;28;45881;-75
2023/03/07 09:13:46;;;;;;;;;14.00;9.00;;;;;7.67;57.45;99527.97;5077428;28;45806;-76
2023/03/07 09:16:12;;;;;;;;;12.50;9.50;;;;;7.74;57.21;99521.34;5076521;28;46518;-75
2023/03/07 09:18:37;;;;;;;;;12.25;10.00;;;;;7.77;57.21;99523.72;5074583;28;47145;-76
2023/03/07 09:21:04;;;;;;;;;10.25;9.00;;;;;7.82;57.14;99523.38;5068065;28;45656;-76
2023/03/07 09:23:29;;;;;;;;;11.25;9.75;;;;;7.81;57.18;99519.09;5054588;28;45630;-76
2023/03/07 09:25:58;;;;;;;;;15.25;10.00;;;;;7.85;57.52;99517.91;5053078;28;46313;-76
2023/03/07 09:28:23;;;;;;;;;15.00;12.00;;;;;7.79;57.33;99505.34;5035654;28;46168;-75
2023/03/07 09:30:50;;;;;;;;;9.50;5.75;;;;;7.86;57.12;99512.59;5053693;28;45713;-76
2023/03/07 09:33:15;;;;;;;;;14.75;12.50;;;;;7.95;57.27;99501.44;5054404;28;45544;-75
2023/03/07 09:35:41;;;;;;;;;9.00;9.00;;;;;7.93;56.98;99492.09;5052755;28;47219;-77
2023/03/07 09:38:07;;;;;;;;;12.75;10.50;;;;;8.09;56.63;99513.41;5053715;28;46221;-77
2023/03/07 09:40:34;;;;;;;;;11.00;10.00;;;;;8.03;56.84;99498.22;5053417;28;45620;-75
2023/03/07 09:43:05;;;;;;;;;17.75;10.75;;;;;8.19;56.83;99519.56;5052350;28;45601;-76
2023/03/07 09:45:36;;;;;;;;;16.00;13.00;;;;;8.25;56.56;99515.63;5035468;28;47567;-77
2023/03/07 09:48:38;;;;;;;;;15.25;11.00;;;;;8.33;56.62;99503.66;5053183;28;47423;-77
2023/03/07 09:51:18;;;;;;;;;15.25;13.00;;;;;8.37;56.46;99499.84;5053805;28;45935;-76
2023/03/07 09:53:55;;;;;;;;;17.00;13.75;;;;;8.38;56.14;99495.47;5053557;28;45593;-76
2023/03/07 09:56:23;;;;;;;;;16.00;13.00;;;;;8.48;56.08;99504.22;5052881;28;47556;-77
2023/03/07 09:59:13;;;;;;;;;14.50;13.00;;;;;8.56;56.02;99495.78;5053248;28;46448;-77
2023/03/07 10:01:43;;;;;;;;;16.50;13.50;;;;;8.59;55.74;99493.72;5051787;28;45868;-77
2023/03/07 10:04:16;;;;;;;;;19.25;14.00;;;;;8.70;55.68;99490.25;5053603;28;45756;-75
2023/03/07 10:06:42;;;;;;;;;16.50;11.75;;;;;8.77;55.51;99491.44;5053125;28;47324;-77
2023/03/07 10:09:17;;;;;;;;;15.75;13.50;;;;;8.83;55.46;99481.31;5053104;28;47259;-77
2023/03/07 10:12:20;;;;;;;;;16.25;13.25;;;;;8.84;55.53;99485.59;5053311;28;45616;-77
2023/03/07 10:15:00;;;;;;;;;13.00;11.00;;;;;8.75;55.25;99452.38;5053736;28;45700;-75
2023/03/07 10:21:11;;;;;;;;;15.75;13.75;;;;;9.01;54.70;99472.94;5053030;27;45543;-76
2023/03/07 10:24:07;;;;;;;;;9.50;9.00;;;;;9.03;54.55;99478.84;4991411;28;45763;-76
2023/03/07 10:26:43;;;;;;;;;14.00;11.00;;;;;9.01;54.54;99473.75;4991200;28;45789;-77
2023/03/07 10:29:19;;;;;;;;;15.00;11.50;;;;;9.07;54.63;99482.88;4991769;28;47454;-78
2023/03/07 10:31:50;;;;;;;;;14.75;11.00;;;;;9.00;54.43;99456.41;4992261;28;46117;-76
2023/03/07 10:37:55;;;;;;;;;12.25;11.00;;;;;9.15;54.02;99475.22;4995038;28;45578;-78
2023/03/07 10:40:30;;;;;;;;;11.50;10.50;;;;;9.15;54.04;99468.19;4992733;28;46814;-77
2023/03/07 10:42:58;;;;;;;;;10.75;10.50;;;;;9.24;53.88;99466.59;4991831;28;47598;-77
2023/03/07 10:45:27;;;;;;;;;15.50;11.50;;;;;9.23;53.88;99444.84;4990649;28;45934;-77
2023/03/07 10:47:53;;;;;;;;;16.00;15.25;;;;;9.40;53.43;99451.28;4990771;28;46132;-76
2023/03/07 10:50:41;;;;;;;;;13.25;11.00;;;;;9.53;53.33;99456.31;4990935;28;46362;-75
2023/03/07 10:53:24;;;;;;;;;14.50;10.50;;;;;9.62;52.87;99463.34;4991068;28;46484;-75
2023/03/07 10:55:51;;;;;;;;;11.50;9.50;;;;;9.65;52.70;99460.50;4989991;28;45923;-77
2023/03/07 10:58:27;;;;;;;;;14.50;9.00;;;;;9.56;52.50;99449.00;4990798;28;45630;-77
2023/03/07 11:01:01;;;;;;;;;10.75;7.50;;;;;9.56;52.15;99456.03;5028023;28;47139;-76
2023/03/07 11:03:38;;;;;;;;;10.50;9.00;;;;;9.52;52.02;99445.00;5052110;28;46111;-77
2023/03/07 11:06:04;;;;;;;;;11.00;7.00;;;;;9.52;52.45;99429.31;5034934;28;45781;-78
2023/03/07 11:08:35;;;;;;;;;11.75;11.25;;;;;9.60;51.60;99441.75;5053163;28;45528;-76
2023/03/07 11:11:03;;;;;;;;;9.50;9.50;;;;;9.64;51.48;99448.38;5052781;28;45673;-76
2023/03/07 11:13:30;;;;;;;;;10.00;8.25;;;;;9.66;51.22;99444.66;5054590;28;46427;-76
2023/03/07 11:16:28;;;;;;;;;12.25;8.75;;;;;9.71;51.40;99444.28;5037966;28;45845;-77
2023/03/07 11:18:56;;;;;;;;;9.00;9.00;;;;;9.74;50.85;99441.38;4974127;28;45696;-77
2023/03/07 11:21:32;;;;;;;;;8.00;6.75;;;;;9.81;50.73;99434.66;4980006;28;46354;-76
2023/03/07 11:24:18;;;;;;;;;6.50;6.50;;;;;9.87;50.60;99442.00;4994119;28;45660;-77
2023/03/07 11:26:44;;;;;;;;;10.00;8.00;;;;;9.94;50.34;99452.72;4993373;28;45625;-76
2023/03/07 11:29:13;;;;;;;;;9.75;7.75;;;;;10.01;50.06;99459.09;4994624;28;45624;-77
2023/03/07 11:31:50;;;;;;;;;14.50;8.75;;;;;10.06;49.99;99465.56;4994442;28;45725;-77
2023/03/07 11:34:36;;;;;;;;;12.00;10.00;;;;;10.10;49.84;99466.94;4994394;28;46194;-77
2023/03/07 11:37:11;;;;;;;;;4.25;3.00;;;;;10.13;49.26;99471.09;4994004;28;45837;-77
2023/03/07 11:40:15;;;;;;;;;12.00;8.00;;;;;10.15;49.08;99455.28;4994485;28;45622;-77
2023/03/07 11:42:49;;;;;;;;;8.25;7.50;;;;;10.11;48.76;99470.41;4994477;28;46328;-78
2023/03/07 11:45:33;;;;;;;;;6.00;6.00;;;;;10.11;48.80;99462.56;4993983;28;47244;-77
2023/03/07 11:51:39;;;;;;;;;6.00;5.25;;;;;10.15;48.49;99460.50;4916741;28;45871;-77
2023/03/07 11:54:33;;;;;;;;;8.00;7.75;;;;;10.20;47.86;99466.19;4944163;28;45697;-78
2023/03/07 11:57:12;;;;;;;;;7.00;6.00;;;;;10.20;48.03;99458.34;4937217;28;46133;-77
2023/03/07 11:59:55;;;;;;;;;9.00;7.50;;;;;10.34;47.81;99473.66;4937593;28;45790;-77
2023/03/07 12:02:32;;;;;;;;;8.00;6.00;;;;;10.37;47.38;99463.72;4939203;28;45628;-79
2023/03/07 12:05:18;;;;;;;;;4.25;4.25;;;;;10.38;47.36;99485.50;4935353;28;47622;-77
2023/03/07 12:08:00;;;;;;;;;6.00;4.50;;;;;10.37;47.17;99491.69;4936620;28;46235;-75
2023/03/07 12:11:01;;;;;;;;;8.50;7.75;;;;;10.33;47.02;99472.00;4934984;28;45786;-76
2023/03/07 12:13:41;;;;;;;;;7.75;6.00;;;;;10.34;47.00;99464.00;4935083;28;45888;-77
2023/03/07 12:16:43;;;;;;;;;5.00;3.75;;;;;10.43;46.83;99470.22;4934611;28;45823;-76
2023/03/07 12:22:45;;;;;;;;;6.75;5.75;;;;;10.45;46.65;99466.50;4949893;28;46076;-75
2023/03/07 12:25:28;;;;;;;;;7.75;6.50;;;;;10.56;45.82;99473.41;4952416;28;45581;-76
2023/03/07 12:28:04;;;;;;;;;7.75;7.00;;;;;10.61;45.89;99467.75;4992850;28;46889;-74
2023/03/07 12:31:00;;;;;;;;;7.25;7.25;;;;;10.59;45.82;99438.25;4992880;28;45972;-77
2023/03/07 12:33:45;;;;;;;;;7.75;7.75;;;;;10.49;45.74;99427.78;5032660;28;45665;-77
2023/03/07 12:36:30;;;;;;;;;6.25;6.00;;;;;10.57;45.52;99441.03;5074056;28;45454;-75
2023/03/07 12:39:14;;;;;;;;;5.75;5.75;;;;;10.62;45.82;99427.50;5074292;28;46524;-77
2023/03/07 12:41:58;;;;;;;;;5.25;3.00;;;;;10.73;45.58;99430.00;5074050;28;46183;-77
2023/03/07 12:44:34;;;;;;;;;7.00;7.00;;;;;10.74;45.17;99413.31;5074845;28;45747;-76
2023/03/07 12:47:13;;;;;;;;;6.75;5.00;;;;;10.83;45.04;99431.63;5074377;28;45863;-77
2023/03/07 12:53:24;;;;;;;;;8.00;6.00;;;;;10.87;44.68;99419.91;5074373;28;46126;-76
2023/03/07 12:56:18;;;;;;;;;8.00;6.75;;;;;10.92;44.77;99430.78;5074319;28;45674;-76
2023/03/07 12:58:52;;;;;;;;;7.00;7.00;;;;;11.00;44.88;99427.47;5074695;28;45830;-75
2023/03/07 13:01:21;;;;;;;;;7.00;6.75;;;;;11.05;44.52;99420.03;5074197;28;46807;-75
2023/03/07 13:04:04;;;;;;;;;6.75;4.00;;;;;11.06;44.52;99428.72;5073998;28;46186;-76
2023/03/07 13:09:54;;;;;;;;;7.25;6.00;;;;;10.97;44.60;99432.97;5074445;28;45648;-78
2023/03/07 13:12:23;;;;;;;;;7.75;6.00;;;;;10.96;44.45;99427.91;5073247;28;47584;-78